Time;durP1;ratioP1;P1;durP2;ratioP2;P2;SDS_P1;SDS_P2;PMS_P1;PMS_P2;Temp;Humidity;BMP_temperature;BMP_pressure;BME280_temperature;BME280_humidity;BME280_pressure;Samples;Min_cycle;Max_cycle;Signal;HPM_P1;HPM_P2
2021/10/24 00:00:50;;;;;;;10.68;3.08;;;11.80;99.90;;;;;;5056182;28;20443;-86
2021/10/24 00:03:16;;;;;;;5.00;2.42;;;11.80;99.90;;;;;;5055706;28;20036;-71
2021/10/24 00:05:41;;;;;;;6.47;2.78;;;11.80;99.90;;;;;;5055137;28;20033;-83
2021/10/24 00:08:07;;;;;;;5.82;2.58;;;11.70;99.90;;;;;;5054882;28;20063;-85
2021/10/24 00:10:33;;;;;;;7.30;2.70;;;11.70;99.90;;;;;;5054557;28;20032;-79
2021/10/24 00:12:59;;;;;;;7.43;3.00;;;11.70;99.90;;;;;;5054703;28;20591;-85
2021/10/24 00:15:25;;;;;;;12.50;3.10;;;11.60;99.90;;;;;;5055049;28;20033;-88
2021/10/24 00:17:50;;;;;;;7.07;3.10;;;11.60;99.90;;;;;;5037420;28;20037;-88
2021/10/24 00:20:16;;;;;;;4.57;2.80;;;11.50;99.90;;;;;;5056711;28;20098;-89
2021/10/24 00:22:42;;;;;;;10.27;2.97;;;11.50;99.90;;;;;;5054721;28;20029;-86
2021/10/24 00:25:08;;;;;;;8.02;2.75;;;11.50;99.90;;;;;;5054393;28;20039;-90
2021/10/24 00:27:34;;;;;;;5.53;3.05;;;11.40;99.90;;;;;;5054227;28;20029;-84
2021/10/24 00:30:00;;;;;;;9.48;3.60;;;11.40;99.90;;;;;;5055303;28;20125;-90
2021/10/24 00:32:25;;;;;;;8.77;3.58;;;11.30;99.90;;;;;;5054482;28;20025;-91
2021/10/24 00:34:51;;;;;;;9.93;3.42;;;11.40;99.90;;;;;;5054135;28;20089;-90
2021/10/24 00:37:17;;;;;;;5.82;3.00;;;11.30;99.90;;;;;;5054019;28;20037;-89
2021/10/24 00:39:42;;;;;;;7.20;3.30;;;11.30;99.90;;;;;;5053985;28;20049;-88
2021/10/24 00:42:08;;;;;;;4.85;3.40;;;11.30;99.90;;;;;;5035774;28;20086;-83
2021/10/24 00:44:34;;;;;;;8.80;3.50;;;11.30;99.90;;;;;;5053886;28;20040;-87
2021/10/24 00:47:03;;;;;;;8.35;3.45;;;11.30;99.90;;;;;;5053809;28;20090;-80
2021/10/24 00:49:29;;;;;;;8.15;3.10;;;11.30;99.90;;;;;;5053344;28;20089;-88
2021/10/24 00:51:55;;;;;;;12.63;3.45;;;11.20;99.90;;;;;;5053749;28;20029;-90
2021/10/24 00:54:23;;;;;;;8.10;3.20;;;11.30;99.90;;;;;;5053369;28;20037;-88
2021/10/24 00:56:51;;;;;;;8.48;2.95;;;11.30;99.90;;;;;;5053152;28;20047;-93
2021/10/24 00:59:17;;;;;;;5.85;2.85;;;11.30;99.90;;;;;;5053587;28;20062;-82
2021/10/24 01:01:43;;;;;;;5.80;3.05;;;11.30;99.90;;;;;;5055185;28;20029;-88
2021/10/24 01:04:09;;;;;;;5.38;3.28;;;11.20;99.90;;;;;;5057155;28;20112;-92
2021/10/24 01:06:37;;;;;;;8.77;3.28;;;11.30;99.90;;;;;;5053844;28;20049;-86
2021/10/24 01:09:05;;;;;;;6.45;2.90;;;11.30;99.90;;;;;;5053503;28;20417;-71
2021/10/24 01:11:31;;;;;;;7.43;3.10;;;11.30;99.90;;;;;;5053676;28;20060;-92
2021/10/24 01:13:57;;;;;;;12.95;3.42;;;11.20;99.90;;;;;;5053124;28;20453;-93
2021/10/24 01:16:23;;;;;;;11.13;3.70;;;11.30;99.90;;;;;;5053513;28;20440;-89
2021/10/24 01:18:49;;;;;;;6.95;3.00;;;11.30;99.90;;;;;;5053359;28;20467;-93
2021/10/24 01:21:15;;;;;;;8.05;3.38;;;11.30;99.90;;;;;;5053592;28;20480;-90
2021/10/24 01:23:41;;;;;;;8.20;3.40;;;11.30;99.90;;;;;;5053413;28;20040;-89
2021/10/24 01:26:07;;;;;;;5.13;3.13;;;11.30;99.90;;;;;;5053769;28;20021;-84
2021/10/24 01:28:33;;;;;;;7.38;3.17;;;11.30;99.90;;;;;;5053145;28;20040;-75
2021/10/24 01:30:59;;;;;;;7.57;3.17;;;11.30;99.90;;;;;;5052935;28;20047;-81
2021/10/24 01:33:26;;;;;;;6.25;3.40;;;11.30;99.90;;;;;;5053208;28;20477;-81
2021/10/24 01:35:54;;;;;;;5.60;2.97;;;11.30;99.90;;;;;;5052984;28;20345;-86
2021/10/24 01:38:20;;;;;;;5.50;3.42;;;11.20;99.90;;;;;;5052785;28;20021;-75
2021/10/24 01:40:46;;;;;;;7.85;2.95;;;11.30;99.90;;;;;;5052631;28;20048;-79
2021/10/24 01:43:12;;;;;;;8.95;4.13;;;11.30;99.90;;;;;;5053164;28;20021;-85
2021/10/24 01:45:38;;;;;;;6.30;3.22;;;11.30;99.90;;;;;;5052852;28;20029;-80
2021/10/24 01:48:04;;;;;;;8.15;4.10;;;11.30;99.90;;;;;;5053140;28;20104;-90
2021/10/24 01:50:30;;;;;;;10.20;3.25;;;11.20;99.90;;;;;;5052802;28;20079;-90
2021/10/24 01:52:56;;;;;;;6.32;3.33;;;11.30;99.90;;;;;;5052220;28;20033;-83
2021/10/24 01:55:22;;;;;;;5.57;3.20;;;11.20;99.90;;;;;;5039443;28;20083;-80
2021/10/24 01:57:51;;;;;;;7.07;3.40;;;11.20;99.90;;;;;;5052837;28;20033;-86
2021/10/24 02:00:17;;;;;;;12.32;3.58;;;11.20;99.90;;;;;;5052360;28;20033;-80
2021/10/24 02:02:44;;;;;;;12.40;3.92;;;11.20;99.90;;;;;;5054094;28;20400;-82
2021/10/24 02:05:09;;;;;;;5.25;2.83;;;11.20;99.90;;;;;;5056436;28;20033;-88
2021/10/24 02:07:35;;;;;;;8.93;3.45;;;11.20;99.90;;;;;;5056567;28;20029;-88
2021/10/24 02:10:04;;;;;;;9.52;3.63;;;11.20;99.90;;;;;;5059245;28;20036;-92
2021/10/24 02:12:30;;;;;;;12.70;3.90;;;11.20;99.90;;;;;;5058008;28;20102;-89
2021/10/24 02:14:55;;;;;;;12.93;3.30;;;11.20;99.90;;;;;;5056429;28;20508;-79
2021/10/24 02:17:21;;;;;;;12.13;3.67;;;11.20;99.90;;;;;;5056581;28;20025;-92
2021/10/24 02:19:46;;;;;;;10.60;3.85;;;11.20;99.90;;;;;;5056494;28;20049;-92
2021/10/24 02:22:12;;;;;;;9.30;3.63;;;11.20;99.90;;;;;;5056263;28;20033;-93
2021/10/24 02:24:38;;;;;;;10.27;3.85;;;11.20;99.90;;;;;;5056114;28;20032;-90
2021/10/24 02:27:04;;;;;;;7.43;3.30;;;11.20;99.90;;;;;;5056118;28;20033;-92
2021/10/24 02:29:29;;;;;;;6.72;3.47;;;11.20;99.90;;;;;;5056774;28;20112;-82
2021/10/24 02:31:55;;;;;;;9.35;4.20;;;11.20;99.90;;;;;;5056239;28;20538;-80
2021/10/24 02:34:23;;;;;;;13.10;3.63;;;11.20;99.90;;;;;;5054606;28;20041;-89
2021/10/24 02:36:49;;;;;;;14.20;3.75;;;11.20;99.90;;;;;;5055610;28;20496;-84
2021/10/24 02:39:15;;;;;;;7.63;3.58;;;11.30;99.90;;;;;;5055630;28;20116;-90
2021/10/24 02:41:40;;;;;;;6.82;3.53;;;11.30;99.90;;;;;;5055363;28;20045;-87
2021/10/24 02:44:06;;;;;;;6.68;3.65;;;11.30;99.90;;;;;;5055903;28;20090;-76
2021/10/24 02:46:32;;;;;;;10.05;4.25;;;11.30;99.90;;;;;;5058143;28;20033;-77
2021/10/24 02:48:57;;;;;;;7.93;3.75;;;11.40;99.90;;;;;;5057291;28;20025;-90
2021/10/24 02:51:23;;;;;;;4.78;3.13;;;11.30;99.90;;;;;;5055626;28;20033;-88
2021/10/24 02:53:49;;;;;;;6.85;3.38;;;11.30;99.90;;;;;;5055438;28;20060;-86
2021/10/24 02:56:14;;;;;;;10.73;4.10;;;11.30;99.90;;;;;;5055121;28;20078;-85
2021/10/24 02:58:40;;;;;;;5.70;3.15;;;11.30;99.90;;;;;;5055329;28;20036;-82
2021/10/24 03:01:06;;;;;;;10.40;3.53;;;11.30;99.90;;;;;;5055575;28;20081;-74
2021/10/24 03:03:31;;;;;;;6.85;3.95;;;11.30;99.90;;;;;;5055594;28;20064;-82
2021/10/24 03:05:57;;;;;;;7.85;3.63;;;11.30;99.90;;;;;;5055504;28;20033;-77
2021/10/24 03:08:22;;;;;;;9.40;4.15;;;11.30;99.90;;;;;;5055585;28;20029;-79
2021/10/24 03:10:51;;;;;;;8.57;3.78;;;11.30;99.90;;;;;;5058099;28;20075;-92
2021/10/24 03:13:19;;;;;;;8.10;3.33;;;11.30;99.90;;;;;;5059395;28;20449;-87
2021/10/24 03:15:45;;;;;;;7.38;3.40;;;11.40;99.90;;;;;;5039202;28;20072;-86
2021/10/24 03:18:11;;;;;;;8.27;3.50;;;11.40;99.90;;;;;;5061675;28;20029;-86
2021/10/24 03:20:36;;;;;;;8.32;3.85;;;11.30;99.90;;;;;;5058183;28;20515;-93
2021/10/24 03:23:02;;;;;;;10.05;4.07;;;11.30;99.90;;;;;;5058158;28;20388;-91
2021/10/24 03:25:28;;;;;;;11.20;3.92;;;11.40;99.90;;;;;;5056761;28;20021;-92
2021/10/24 03:27:54;;;;;;;11.80;3.85;;;11.40;99.90;;;;;;5054440;28;20123;-88
2021/10/24 03:30:20;;;;;;;9.20;3.92;;;11.40;99.90;;;;;;5054935;28;20439;-90
2021/10/24 03:32:45;;;;;;;18.02;4.10;;;11.50;99.90;;;;;;5054614;28;20029;-76
2021/10/24 03:35:11;;;;;;;7.60;4.10;;;11.50;99.90;;;;;;5054484;28;20499;-80
2021/10/24 03:37:37;;;;;;;8.15;3.72;;;11.50;99.90;;;;;;5054951;28;20373;-75
2021/10/24 03:40:03;;;;;;;6.72;3.90;;;11.50;99.90;;;;;;5054060;28;20056;-75
2021/10/24 03:42:29;;;;;;;7.45;3.88;;;11.50;99.90;;;;;;5054639;28;20067;-87
2021/10/24 03:44:55;;;;;;;7.60;3.88;;;11.50;99.90;;;;;;5055438;28;20482;-84
2021/10/24 03:47:21;;;;;;;12.48;4.07;;;11.50;99.90;;;;;;5054190;28;20393;-87
2021/10/24 03:49:47;;;;;;;5.32;3.80;;;11.40;99.90;;;;;;5054346;28;20048;-86
2021/10/24 03:52:13;;;;;;;5.97;3.47;;;11.40;99.90;;;;;;5054790;28;20022;-88
2021/10/24 03:54:39;;;;;;;7.38;4.00;;;11.40;99.90;;;;;;5054366;28;20488;-78
2021/10/24 03:57:04;;;;;;;7.57;3.80;;;11.40;99.90;;;;;;5054706;28;20120;-92
2021/10/24 03:59:30;;;;;;;14.90;4.32;;;11.40;99.90;;;;;;5054530;28;20388;-91
2021/10/24 04:01:56;;;;;;;9.52;4.00;;;11.40;99.90;;;;;;5054162;28;20037;-93
2021/10/24 04:04:22;;;;;;;9.70;4.75;;;11.40;99.90;;;;;;5054737;28;20029;-86
2021/10/24 04:06:47;;;;;;;14.82;4.35;;;11.40;99.90;;;;;;5054075;28;20033;-84
2021/10/24 04:09:13;;;;;;;13.85;3.78;;;11.40;99.90;;;;;;5053724;28;20370;-84
2021/10/24 04:11:39;;;;;;;8.32;3.50;;;11.40;99.90;;;;;;5053941;28;20021;-84
2021/10/24 04:14:05;;;;;;;8.52;3.72;;;11.40;99.90;;;;;;5054250;28;20116;-92
2021/10/24 04:16:31;;;;;;;7.65;3.70;;;11.40;99.90;;;;;;5054087;28;20033;-87
2021/10/24 04:18:56;;;;;;;7.00;3.70;;;11.40;99.90;;;;;;5053488;28;21991;-91
2021/10/24 04:21:22;;;;;;;7.57;4.22;;;11.30;99.90;;;;;;5053182;28;20037;-84
2021/10/24 04:23:48;;;;;;;9.63;4.00;;;11.40;99.90;;;;;;5053660;28;20029;-88
2021/10/24 04:26:14;;;;;;;12.70;4.07;;;11.30;99.90;;;;;;5057203;28;20037;-82
2021/10/24 04:28:40;;;;;;;7.45;4.18;;;11.30;99.90;;;;;;5054463;28;20036;-89
2021/10/24 04:31:06;;;;;;;11.50;4.47;;;11.30;99.90;;;;;;5053387;28;20025;-92
2021/10/24 04:33:31;;;;;;;12.88;4.57;;;11.30;99.90;;;;;;5037017;28;20029;-89
2021/10/24 04:35:57;;;;;;;12.35;4.82;;;11.20;99.90;;;;;;5053546;28;20072;-93
2021/10/24 04:38:23;;;;;;;11.10;4.55;;;11.20;99.90;;;;;;5053778;28;20139;-89
2021/10/24 04:40:49;;;;;;;9.65;4.30;;;11.20;99.90;;;;;;5053238;28;20045;-86
2021/10/24 04:43:15;;;;;;;4.97;3.42;;;11.20;99.90;;;;;;5053818;28;20064;-89
2021/10/24 04:45:42;;;;;;;10.10;4.03;;;11.20;99.90;;;;;;5053367;28;20033;-89
2021/10/24 04:48:08;;;;;;;12.07;4.78;;;11.20;99.90;;;;;;5053508;28;20025;-76
2021/10/24 04:50:34;;;;;;;8.85;4.32;;;11.10;99.90;;;;;;5049385;28;20033;-86
2021/10/24 04:53:07;;;;;;;9.98;3.95;;;11.10;99.90;;;;;;5047707;28;20540;-78
2021/10/24 04:55:34;;;;;;;17.05;4.57;;;11.10;99.90;;;;;;5053097;28;20087;-74
2021/10/24 04:58:00;;;;;;;27.40;4.78;;;11.10;99.90;;;;;;5039895;28;20029;-86
2021/10/24 05:00:25;;;;;;;14.85;4.75;;;11.00;99.90;;;;;;5053239;28;20394;-80
2021/10/24 05:02:51;;;;;;;15.20;4.57;;;11.00;99.90;;;;;;5053464;28;20029;-87
2021/10/24 05:05:17;;;;;;;10.20;4.05;;;11.10;99.90;;;;;;5053046;28;20025;-82
2021/10/24 05:07:43;;;;;;;8.57;3.85;;;11.00;99.90;;;;;;5053531;28;20381;-87
2021/10/24 05:10:09;;;;;;;11.32;5.22;;;11.00;99.90;;;;;;5053381;28;20041;-83
2021/10/24 05:12:35;;;;;;;8.52;4.38;;;11.00;99.90;;;;;;5053112;28;20037;-88
2021/10/24 05:15:01;;;;;;;9.35;3.78;;;11.00;99.90;;;;;;5053533;28;20389;-86
2021/10/24 05:17:26;;;;;;;8.15;3.90;;;11.00;99.90;;;;;;5056320;28;20029;-86
2021/10/24 05:19:52;;;;;;;6.95;3.65;;;11.00;99.90;;;;;;5053346;28;20045;-83
2021/10/24 05:22:20;;;;;;;8.40;4.50;;;11.00;99.90;;;;;;5053494;28;20099;-85
2021/10/24 05:24:46;;;;;;;8.65;3.90;;;11.00;99.90;;;;;;5053121;28;20200;-90
2021/10/24 05:27:11;;;;;;;10.05;4.30;;;11.00;99.90;;;;;;5053092;28;20442;-92
2021/10/24 05:29:37;;;;;;;7.93;3.67;;;11.00;99.90;;;;;;5052933;28;20075;-91
2021/10/24 05:32:03;;;;;;;12.15;4.07;;;11.00;99.90;;;;;;5053405;28;20075;-86
2021/10/24 05:34:29;;;;;;;12.27;3.60;;;11.00;99.90;;;;;;5058627;28;20082;-91
2021/10/24 05:36:54;;;;;;;6.57;3.40;;;11.00;99.90;;;;;;5054024;28;20033;-88
2021/10/24 05:39:20;;;;;;;12.20;4.03;;;11.10;99.90;;;;;;5058714;28;20071;-89
2021/10/24 05:41:46;;;;;;;11.88;4.00;;;11.10;99.90;;;;;;5056908;28;20068;-92
2021/10/24 05:44:13;;;;;;;6.20;3.58;;;11.10;99.90;;;;;;5056785;28;20040;-91
2021/10/24 05:46:39;;;;;;;9.32;4.15;;;11.10;99.90;;;;;;5056889;28;20127;-89
2021/10/24 05:49:07;;;;;;;6.15;3.58;;;11.10;99.90;;;;;;5057743;28;20393;-84
2021/10/24 05:51:33;;;;;;;9.13;4.18;;;11.10;99.90;;;;;;5056965;28;20036;-92
2021/10/24 05:53:58;;;;;;;8.43;3.70;;;11.10;99.90;;;;;;5056817;28;20025;-91
2021/10/24 05:56:24;;;;;;;8.50;4.22;;;11.10;99.90;;;;;;5056604;28;20033;-88
2021/10/24 05:58:50;;;;;;;7.63;4.10;;;11.10;99.90;;;;;;5056498;28;20037;-92
2021/10/24 06:01:15;;;;;;;8.05;4.03;;;11.30;99.90;;;;;;5056510;28;20385;-89
2021/10/24 06:03:43;;;;;;;10.15;3.60;;;11.70;99.90;;;;;;5056484;28;20469;-82
2021/10/24 06:06:08;;;;;;;10.75;3.80;;;12.10;99.90;;;;;;5055984;28;20086;-93
2021/10/24 06:08:36;;;;;;;9.90;3.78;;;12.30;99.90;;;;;;5056332;28;20400;-77
2021/10/24 06:11:27;;;;;;;8.18;3.63;;;12.60;99.90;;;;;;5048370;28;20091;-88
2021/10/24 06:13:50;;;;;;;14.02;3.78;;;12.90;99.90;;;;;;5055776;28;20037;-87
2021/10/24 06:16:16;;;;;;;6.53;3.45;;;13.30;99.90;;;;;;5056277;28;20132;-83
2021/10/24 06:18:42;;;;;;;8.57;3.47;;;13.50;99.90;;;;;;5056466;28;20029;-84
2021/10/24 06:21:08;;;;;;;8.48;3.90;;;13.70;99.90;;;;;;5038544;28;20047;-90
2021/10/24 06:23:33;;;;;;;4.80;3.30;;;13.80;99.90;;;;;;5056175;28;20112;-91
2021/10/24 06:25:59;;;;;;;6.00;3.00;;;13.90;99.90;;;;;;5056296;28;20115;-91
2021/10/24 06:28:26;;;;;;;5.72;3.00;;;14.10;99.90;;;;;;5055679;28;20030;-89
2021/10/24 06:30:51;;;;;;;6.05;2.53;;;14.50;99.90;;;;;;5055812;28;20036;-75
2021/10/24 06:33:17;;;;;;;9.27;3.08;;;14.70;99.90;;;;;;5056505;28;20025;-88
2021/10/24 06:35:45;;;;;;;7.32;3.33;;;15.00;99.90;;;;;;5055937;28;20588;-92
2021/10/24 06:38:11;;;;;;;10.55;2.90;;;15.30;99.90;;;;;;5056152;28;20029;-84
2021/10/24 06:40:37;;;;;;;6.03;2.55;;;15.70;99.90;;;;;;5055730;28;20075;-89
2021/10/24 06:43:03;;;;;;;6.72;2.65;;;16.00;99.90;;;;;;5057759;28;20052;-93
2021/10/24 06:45:31;;;;;;;13.45;2.97;;;16.50;99.90;;;;;;5056135;28;20040;-85
2021/10/24 06:47:56;;;;;;;7.40;2.65;;;16.70;99.90;;;;;;5037867;28;20112;-84
2021/10/24 06:50:22;;;;;;;6.57;2.55;;;16.80;99.90;;;;;;5055708;28;20112;-90
2021/10/24 06:52:48;;;;;;;3.60;2.28;;;17.00;99.90;;;;;;5055904;28;20094;-86
2021/10/24 06:55:14;;;;;;;6.05;2.78;;;17.00;99.90;;;;;;5055600;28;20039;-91
2021/10/24 06:57:54;;;;;;;5.50;2.70;;;17.00;99.70;;;;;;5055767;28;20033;-92
2021/10/24 07:00:25;;;;;;;5.20;2.40;;;17.10;99.70;;;;;;5048739;28;20045;-85
2021/10/24 07:02:51;;;;;;;5.60;2.72;;;17.40;99.40;;;;;;5049861;28;20060;-88
2021/10/24 07:05:18;;;;;;;7.82;2.72;;;17.60;98.80;;;;;;5031510;28;20064;-73
2021/10/24 07:07:45;;;;;;;6.20;2.67;;;17.80;98.50;;;;;;5053495;28;20021;-92
2021/10/24 07:10:12;;;;;;;5.90;2.28;;;17.90;98.20;;;;;;5054838;28;20044;-90
2021/10/24 07:12:38;;;;;;;5.60;2.42;;;18.20;97.70;;;;;;5054361;28;20025;-87
2021/10/24 07:15:06;;;;;;;9.45;2.63;;;18.20;97.50;;;;;;5054585;28;20104;-87
2021/10/24 07:17:32;;;;;;;8.30;2.50;;;18.00;97.30;;;;;;5054898;28;20090;-89
2021/10/24 07:19:57;;;;;;;5.28;2.30;;;17.90;97.30;;;;;;5055338;28;20040;-89
2021/10/24 07:22:23;;;;;;;4.15;2.20;;;17.70;97.40;;;;;;5055007;28;20029;-89
2021/10/24 07:24:50;;;;;;;6.50;2.40;;;17.70;97.80;;;;;;5054228;28;20033;-87
2021/10/24 07:27:17;;;;;;;5.80;2.20;;;17.60;97.70;;;;;;5053978;28;20021;-73
2021/10/24 07:29:43;;;;;;;4.43;2.03;;;17.40;97.80;;;;;;5054521;28;20068;-87
2021/10/24 07:32:09;;;;;;;6.88;2.33;;;17.20;98.10;;;;;;5054209;28;20029;-82
2021/10/24 07:34:35;;;;;;;9.15;4.03;;;17.00;98.10;;;;;;5053773;28;20116;-85
2021/10/24 07:37:00;;;;;;;7.72;2.63;;;16.40;98.70;;;;;;5053848;28;20130;-81
2021/10/24 07:39:26;;;;;;;8.57;2.40;;;16.00;99.20;;;;;;5053275;28;20041;-85
2021/10/24 07:41:52;;;;;;;3.75;1.77;;;16.00;99.20;;;;;;5053365;28;20037;-83
2021/10/24 07:44:19;;;;;;;6.07;2.33;;;16.20;99.20;;;;;;5054333;28;20057;-90
2021/10/24 07:46:45;;;;;;;4.55;2.03;;;16.40;98.90;;;;;;5052014;28;20052;-87
2021/10/24 07:49:12;;;;;;;6.57;2.33;;;16.50;98.60;;;;;;5037264;28;20057;-77
2021/10/24 07:51:38;;;;;;;6.07;2.25;;;16.40;98.40;;;;;;5053460;28;20044;-78
2021/10/24 07:54:04;;;;;;;9.00;2.30;;;16.40;98.70;;;;;;5049216;28;20025;-77
2021/10/24 07:56:33;;;;;;;5.22;2.10;;;16.30;98.70;;;;;;5054020;28;20036;-87
2021/10/24 07:59:03;;;;;;;11.02;2.72;;;16.30;98.60;;;;;;5050533;28;20029;-91
2021/10/24 08:01:31;;;;;;;5.90;2.60;;;16.60;98.90;;;;;;5053016;28;20040;-92
2021/10/24 08:03:57;;;;;;;9.93;2.47;;;16.50;98.20;;;;;;5054322;28;20028;-81
2021/10/24 08:06:23;;;;;;;5.57;2.25;;;16.40;98.10;;;;;;5054053;28;20033;-90
2021/10/24 08:08:50;;;;;;;7.50;2.13;;;16.40;98.40;;;;;;5050993;28;20544;-92
2021/10/24 08:11:15;;;;;;;4.47;2.00;;;16.40;98.50;;;;;;5055272;28;20029;-80
2021/10/24 08:13:41;;;;;;;5.60;2.42;;;16.60;98.20;;;;;;5051740;28;20085;-77
2021/10/24 08:16:06;;;;;;;5.47;2.25;;;16.80;97.90;;;;;;5055146;28;20032;-77
2021/10/24 08:18:32;;;;;;;4.38;1.98;;;17.10;97.80;;;;;;5053886;28;20035;-79
2021/10/24 08:20:58;;;;;;;6.28;2.25;;;17.30;97.90;;;;;;5053282;28;20079;-81
2021/10/24 08:23:26;;;;;;;7.07;3.17;;;17.70;97.60;;;;;;5054985;28;20028;-79
2021/10/24 08:25:52;;;;;;;7.88;1.90;;;18.10;96.80;;;;;;5053780;28;20119;-81
2021/10/24 08:28:18;;;;;;;7.47;2.10;;;18.50;96.10;;;;;;5053475;28;20115;-82
2021/10/24 08:30:44;;;;;;;7.40;2.30;;;19.20;95.50;;;;;;5034110;28;20084;-80
2021/10/24 08:33:11;;;;;;;6.72;1.95;;;20.10;94.40;;;;;;5051854;28;20064;-89
2021/10/24 08:35:37;;;;;;;5.78;1.95;;;20.80;92.50;;;;;;5049762;28;20082;-74
2021/10/24 08:38:03;;;;;;;4.50;1.50;;;22.00;92.20;;;;;;5049226;28;20037;-73
2021/10/24 08:40:29;;;;;;;11.27;2.60;;;23.10;90.10;;;;;;5051919;28;20037;-75
2021/10/24 08:42:59;;;;;;;6.03;2.08;;;23.60;88.40;;;;;;5051670;28;20040;-81
2021/10/24 08:45:27;;;;;;;7.25;2.95;;;24.60;85.70;;;;;;5049386;28;20041;-75
2021/10/24 08:47:53;;;;;;;9.05;1.90;;;24.60;83.30;;;;;;5050607;28;20079;-73
2021/10/24 08:50:20;;;;;;;6.35;1.73;;;25.20;82.50;;;;;;5050574;28;20033;-72
2021/10/24 08:52:54;;;;;;;6.35;1.98;;;25.10;80.60;;;;;;5050408;28;20041;-75
2021/10/24 08:55:20;;;;;;;4.07;1.70;;;25.90;78.60;;;;;;5050471;28;20493;-75
2021/10/24 08:57:49;;;;;;;5.40;2.10;;;25.90;77.80;;;;;;5052413;28;20017;-75
2021/10/24 09:00:15;;;;;;;7.90;2.10;;;25.10;77.70;;;;;;5052221;28;20037;-80
2021/10/24 09:03:03;;;;;;;3.47;1.63;;;24.90;78.30;;;;;;5033288;28;20107;-86
2021/10/24 09:05:33;;;;;;;5.25;1.85;;;24.90;78.30;;;;;;5050854;28;20037;-89
2021/10/24 09:08:00;;;;;;;2.58;1.38;;;26.10;76.60;;;;;;5049497;28;20025;-86
2021/10/24 09:10:56;;;;;;;7.63;1.80;;;26.80;74.20;;;;;;5048553;28;20033;-74
2021/10/24 09:13:27;;;;;;;5.13;1.80;;;26.90;72.70;;;;;;5038537;28;20370;-73
2021/10/24 09:16:02;;;;;;;5.80;1.70;;;27.20;72.20;;;;;;5053664;28;20041;-82
2021/10/24 09:18:34;;;;;;;5.55;1.65;;;27.40;72.00;;;;;;5055262;28;20040;-82
2021/10/24 09:21:19;;;;;;;4.47;1.85;;;26.60;73.30;;;;;;5054023;28;20029;-86
2021/10/24 09:23:53;;;;;;;6.65;1.73;;;26.50;72.80;;;;;;5053597;28;20033;-84
2021/10/24 09:26:25;;;;;;;3.97;1.60;;;26.60;72.30;;;;;;5054374;28;20137;-83
2021/10/24 09:29:11;;;;;;;5.97;2.08;;;27.10;70.60;;;;;;5054192;28;20171;-74
2021/10/24 09:31:41;;;;;;;6.10;1.63;;;26.80;70.50;;;;;;5053349;28;20037;-77
2021/10/24 09:34:21;;;;;;;3.83;1.80;;;26.90;70.30;;;;;;5054310;28;20032;-76
2021/10/24 09:37:00;;;;;;;8.57;2.08;;;27.80;69.00;;;;;;5054764;28;20040;-74
2021/10/24 09:39:31;;;;;;;4.35;1.30;;;28.10;67.80;;;;;;5056059;28;20044;-72
2021/10/24 09:42:13;;;;;;;5.40;1.98;;;27.90;68.50;;;;;;5056138;28;20119;-87
2021/10/24 09:44:58;;;;;;;;;;;28.80;67.20;;;;;;5056533;28;20477;-84
2021/10/24 09:47:25;;;;;;;7.50;1.83;;;28.20;65.80;;;;;;5056467;28;20003;-73
2021/10/24 09:49:51;;;;;;;5.80;1.60;;;27.90;67.00;;;;;;5058418;28;20409;-77
2021/10/24 09:52:27;;;;;;;3.58;1.50;;;28.20;65.40;;;;;;5055975;28;20025;-76
2021/10/24 09:54:55;;;;;;;3.67;1.38;;;27.70;66.10;;;;;;5054679;28;20029;-76
2021/10/24 09:57:22;;;;;;;5.85;1.92;;;28.20;66.40;;;;;;5055998;28;20045;-76
2021/10/24 09:59:51;;;;;;;9.98;1.80;;;30.60;63.30;;;;;;5055385;28;20033;-75
2021/10/24 10:02:21;;;;;;;6.45;2.17;;;30.40;61.90;;;;;;5046872;28;20032;-84
2021/10/24 10:04:47;;;;;;;4.15;2.10;;;29.70;61.10;;;;;;5055585;28;20028;-89
2021/10/24 10:07:17;;;;;;;6.05;1.88;;;29.10;62.50;;;;;;5056561;28;20029;-73
2021/10/24 10:09:44;;;;;;;13.40;2.50;;;29.00;62.10;;;;;;5055441;28;20033;-77
2021/10/24 10:12:17;;;;;;;6.18;1.92;;;27.30;64.30;;;;;;5055154;28;20068;-73
2021/10/24 10:14:44;;;;;;;7.82;2.88;;;25.00;67.80;;;;;;5058600;28;20025;-80
2021/10/24 10:17:19;;;;;;;11.23;2.95;;;23.40;71.40;;;;;;5055547;28;20114;-82
2021/10/24 10:19:47;;;;;;;11.10;3.25;;;22.70;72.60;;;;;;5054855;28;20045;-88
2021/10/24 10:22:21;;;;;;;9.02;5.00;;;21.70;74.90;;;;;;5025465;28;20571;-80
2021/10/24 10:25:02;;;;;;;17.90;5.75;;;20.70;77.40;;;;;;5054176;28;20040;-80
2021/10/24 10:27:39;;;;;;;4.68;2.53;;;20.50;78.30;;;;;;5044264;28;20029;-85
2021/10/24 10:30:17;;;;;;;6.72;2.88;;;20.00;78.60;;;;;;5054249;28;20128;-83
2021/10/24 10:32:51;;;;;;;5.78;4.03;;;19.30;80.50;;;;;;5051715;28;20029;-81
2021/10/24 10:35:24;;;;;;;8.57;4.00;;;18.80;81.70;;;;;;5054849;28;20025;-83
2021/10/24 10:38:03;;;;;;;8.00;3.05;;;18.70;82.30;;;;;;5047302;28;20436;-89
2021/10/24 10:40:44;;;;;;;9.63;4.03;;;18.40;83.30;;;;;;5052362;28;20102;-74
2021/10/24 10:43:20;;;;;;;16.08;6.28;;;18.40;85.00;;;;;;5047189;28;20124;-87
2021/10/24 10:46:08;;;;;;;10.85;5.25;;;18.50;84.70;;;;;;5054980;28;20029;-75
2021/10/24 10:48:41;;;;;;;11.30;5.03;;;18.10;85.60;;;;;;5054707;28;20043;-78
2021/10/24 10:51:28;;;;;;;7.05;2.53;;;17.80;86.70;;;;;;5055003;28;20455;-85
2021/10/24 10:53:59;;;;;;;6.82;4.05;;;17.70;87.20;;;;;;5054483;28;20035;-75
2021/10/24 10:56:29;;;;;;;7.60;4.67;;;17.70;88.00;;;;;;5053520;28;20029;-75
2021/10/24 10:59:00;;;;;;;18.52;11.35;;;17.90;88.00;;;;;;5052235;28;20033;-75
2021/10/24 11:01:46;;;;;;;6.22;2.83;;;18.00;87.70;;;;;;5053474;28;20463;-74
2021/10/24 11:04:15;;;;;;;11.55;2.33;;;17.90;87.80;;;;;;5053622;28;20072;-76
2021/10/24 11:06:41;;;;;;;3.75;1.92;;;17.70;88.10;;;;;;5053498;28;20059;-75
2021/10/24 11:09:07;;;;;;;13.32;3.53;;;17.70;88.10;;;;;;5053722;28;20080;-75
2021/10/24 11:11:44;;;;;;;6.55;3.28;;;17.60;88.90;;;;;;5053711;28;20129;-73
2021/10/24 11:14:16;;;;;;;12.73;2.10;;;17.40;88.90;;;;;;5053046;28;20512;-75
2021/10/24 11:16:44;;;;;;;;;;;17.40;88.90;;;;;;5052795;28;20041;-76
2021/10/24 11:19:37;;;;;;;9.05;4.05;;;17.50;89.30;;;;;;5052936;28;19915;-75
2021/10/24 11:22:09;;;;;;;5.25;2.35;;;17.50;89.30;;;;;;5035204;28;20057;-75
2021/10/24 11:24:40;;;;;;;;;;;17.30;89.60;;;;;;5053539;28;20032;-75
2021/10/24 11:27:09;;;;;;;13.73;5.97;;;17.40;90.00;;;;;;5053108;28;20055;-75
2021/10/24 11:29:46;;;;;;;7.13;3.25;;;17.30;90.20;;;;;;5052078;28;20036;-75
2021/10/24 11:32:21;;;;;;;7.00;2.45;;;17.20;90.40;;;;;;5052837;28;20032;-75
2021/10/24 11:34:47;;;;;;;9.80;3.55;;;17.20;90.10;;;;;;5045061;28;20044;-77
2021/10/24 11:37:13;;;;;;;4.43;1.70;;;17.20;90.20;;;;;;5052357;28;20049;-79
2021/10/24 11:39:40;;;;;;;7.22;2.50;;;17.30;90.00;;;;;;5050516;28;20037;-72
2021/10/24 11:42:09;;;;;;;7.40;2.60;;;17.40;89.80;;;;;;5053109;28;20120;-72
2021/10/24 11:44:35;;;;;;;6.28;3.28;;;17.40;89.40;;;;;;5053062;28;20025;-81
2021/10/24 11:47:12;;;;;;;9.90;2.75;;;17.40;90.00;;;;;;5053657;28;20083;-79
2021/10/24 11:49:51;;;;;;;7.25;2.00;;;17.60;90.10;;;;;;5053402;28;20128;-83
2021/10/24 11:52:25;;;;;;;10.18;2.15;;;17.70;89.40;;;;;;5051902;28;20546;-83
2021/10/24 11:55:14;;;;;;;6.10;2.20;;;17.60;89.10;;;;;;5052985;28;20104;-84
2021/10/24 12:03:24;;;;;;;3.45;2.17;;;17.50;88.80;;;;;;5056414;28;20532;-82
2021/10/24 12:05:49;;;;;;;10.13;2.20;;;17.50;90.00;;;;;;5057620;28;20033;-83
2021/10/24 12:08:15;;;;;;;7.68;2.88;;;17.50;90.00;;;;;;5052755;28;20512;-79
2021/10/24 12:10:52;;;;;;;6.88;2.35;;;17.60;89.30;;;;;;5052773;28;20036;-79
2021/10/24 12:13:37;;;;;;;6.72;2.15;;;17.50;89.00;;;;;;5018787;28;20094;-84
2021/10/24 12:16:26;;;;;;;8.10;2.00;;;17.30;90.00;;;;;;5050533;28;20033;-78
2021/10/24 12:19:19;;;;;;;6.85;2.00;;;17.40;90.30;;;;;;5051673;28;20036;-82
2021/10/24 12:22:08;;;;;;;3.60;1.63;;;17.50;89.90;;;;;;5051336;28;20080;-80
2021/10/24 12:24:48;;;;;;;6.55;2.38;;;17.40;90.10;;;;;;5054045;28;20555;-82
2021/10/24 12:27:34;;;;;;;4.60;2.38;;;17.40;90.40;;;;;;5022803;28;20086;-82
2021/10/24 12:30:08;;;;;;;7.28;2.50;;;17.50;90.60;;;;;;5052815;28;20389;-78
2021/10/24 12:32:53;;;;;;;3.88;1.83;;;17.40;90.60;;;;;;5053245;28;20036;-76
2021/10/24 12:35:18;;;;;;;5.30;2.20;;;17.40;90.70;;;;;;5038176;28;20337;-83
2021/10/24 12:38:04;;;;;;;5.38;2.40;;;17.30;90.90;;;;;;5034681;28;20037;-79
2021/10/24 12:40:34;;;;;;;7.72;2.55;;;17.30;90.90;;;;;;5053844;28;20052;-74
2021/10/24 12:43:13;;;;;;;4.15;2.05;;;17.30;90.90;;;;;;5055981;28;20063;-78
2021/10/24 12:45:50;;;;;;;6.05;2.20;;;17.40;91.10;;;;;;5054321;28;20032;-82
2021/10/24 12:48:17;;;;;;;6.90;2.22;;;17.40;90.90;;;;;;5053707;28;20104;-80
2021/10/24 12:50:43;;;;;;;6.03;2.15;;;17.30;90.70;;;;;;5037311;28;20400;-83
2021/10/24 12:53:15;;;;;;;11.35;2.72;;;17.30;90.90;;;;;;5052441;28;20035;-85
2021/10/24 12:55:57;;;;;;;;;;;17.30;91.00;;;;;;5053049;28;20053;-84
2021/10/24 12:58:22;;;;;;;9.95;2.00;;;17.20;90.70;;;;;;5053855;28;19989;-82